createdAt,value
2019-03-27T00:00:12.756Z,79.50
2019-03-27T00:02:46.220Z,80.75
2019-03-27T00:05:18.578Z,81.57
2019-03-27T00:07:50.804Z,81.43
2019-03-27T00:10:23.284Z,78.27
2019-03-27T00:12:55.549Z,82.82
2019-03-27T00:15:28.819Z,85.87
2019-03-27T00:18:01.008Z,76.40
2019-03-27T00:20:33.146Z,106.45
2019-03-27T00:23:05.184Z,82.53
2019-03-27T00:25:40.004Z,76.15
2019-03-27T00:28:12.236Z,77.03
2019-03-27T00:30:44.482Z,71.35
2019-03-27T00:33:16.699Z,68.30
2019-03-27T00:35:48.920Z,75.70
2019-03-27T00:38:21.005Z,68.42
2019-03-27T00:40:53.472Z,69.50
2019-03-27T00:43:25.708Z,67.97
2019-03-27T00:45:57.942Z,71.53
2019-03-27T00:48:30.144Z,69.93
2019-03-27T00:51:02.413Z,63.98
2019-03-27T00:53:34.621Z,61.83
2019-03-27T00:56:07.837Z,60.38
2019-03-27T00:58:40.264Z,75.00
2019-03-27T01:01:12.549Z,63.08
2019-03-27T01:03:44.750Z,64.45
2019-03-27T01:06:16.884Z,70.87
2019-03-27T01:08:48.918Z,69.87
2019-03-27T01:11:21.478Z,68.55
2019-03-27T01:13:53.620Z,68.90
2019-03-27T01:16:26.075Z,71.25
2019-03-27T01:18:58.207Z,73.60
2019-03-27T01:21:30.386Z,72.90
2019-03-27T01:24:02.536Z,73.85
2019-03-27T01:26:36.802Z,74.40
2019-03-27T01:29:08.949Z,77.15
2019-03-27T01:31:41.113Z,75.47
2019-03-27T01:34:13.444Z,76.53
2019-03-27T01:36:45.781Z,77.20
2019-03-27T01:39:17.985Z,83.80
2019-03-27T01:41:50.343Z,69.45
2019-03-27T01:44:22.552Z,81.17
2019-03-27T01:46:54.820Z,77.03
2019-03-27T01:49:28.121Z,75.45
2019-03-27T01:52:00.208Z,70.37
2019-03-27T01:54:32.430Z,70.00
2019-03-27T01:57:04.579Z,72.80
2019-03-27T01:59:36.736Z,71.57
2019-03-27T02:02:09.109Z,74.67
2019-03-27T02:04:41.319Z,65.32
2019-03-27T02:07:13.683Z,70.20
2019-03-27T02:09:45.892Z,73.15
2019-03-27T02:12:18.266Z,73.28
2019-03-27T02:14:50.526Z,74.60
2019-03-27T02:17:22.898Z,70.50
2019-03-27T02:19:56.261Z,73.70
2019-03-27T02:22:28.853Z,74.70
2019-03-27T02:25:00.988Z,70.72
2019-03-27T02:27:35.400Z,66.77
2019-03-27T02:30:08.876Z,69.37
2019-03-27T02:32:41.476Z,64.67
2019-03-27T02:35:13.682Z,65.45
2019-03-27T02:37:45.867Z,62.53
2019-03-27T02:40:18.183Z,64.77
2019-03-27T02:42:50.502Z,67.12
2019-03-27T02:45:22.750Z,65.95
2019-03-27T02:47:54.997Z,62.20
2019-03-27T02:50:27.325Z,63.85
2019-03-27T02:52:59.744Z,65.45
2019-03-27T02:55:31.959Z,58.28
2019-03-27T02:58:04.203Z,56.17
2019-03-27T03:00:36.489Z,68.55
2019-03-27T03:03:08.857Z,57.40
2019-03-27T03:05:40.921Z,57.35
2019-03-27T03:08:12.992Z,60.35
2019-03-27T03:10:45.802Z,49.88
2019-03-27T03:13:18.556Z,45.33
2019-03-27T03:15:50.870Z,45.40
2019-03-27T03:18:23.215Z,46.10
2019-03-27T03:20:55.555Z,47.73
2019-03-27T03:23:27.822Z,46.27
2019-03-27T03:25:59.980Z,44.13
2019-03-27T03:28:34.962Z,45.00
2019-03-27T03:31:07.315Z,51.48
2019-03-27T03:33:39.485Z,48.92
2019-03-27T03:36:11.641Z,50.23
2019-03-27T03:38:45.103Z,52.33
2019-03-27T03:41:17.375Z,50.20
2019-03-27T03:43:49.655Z,50.95
2019-03-27T03:46:21.808Z,48.73
2019-03-27T03:48:54.006Z,52.48
2019-03-27T03:51:26.167Z,46.13
2019-03-27T03:53:58.231Z,47.53
2019-03-27T03:56:30.417Z,48.20
2019-03-27T03:59:03.130Z,48.60
2019-03-27T04:01:35.458Z,49.88
2019-03-27T04:04:07.736Z,44.38
2019-03-27T04:06:39.860Z,49.73
2019-03-27T04:09:12.201Z,47.60
2019-03-27T04:11:44.533Z,44.73
2019-03-27T04:14:16.672Z,47.98
2019-03-27T04:16:49.083Z,49.23
2019-03-27T04:19:21.532Z,87.47
2019-03-27T04:21:53.653Z,52.35
2019-03-27T04:24:25.684Z,47.25
2019-03-27T04:26:57.835Z,39.63
2019-03-27T04:29:32.936Z,40.67
2019-03-27T04:32:05.056Z,40.23
2019-03-27T04:34:38.071Z,41.60
2019-03-27T04:37:10.295Z,42.27
2019-03-27T04:39:42.382Z,44.13
2019-03-27T04:42:14.606Z,42.03
2019-03-27T04:44:46.923Z,39.83
2019-03-27T04:47:31.567Z,38.93
2019-03-27T04:49:53.092Z,39.70
2019-03-27T04:52:25.091Z,33.63
2019-03-27T04:54:57.677Z,35.28
2019-03-27T04:57:30.998Z,35.98
2019-03-27T05:00:03.274Z,34.07
2019-03-27T05:02:35.487Z,56.90
2019-03-27T05:05:09.191Z,42.53
2019-03-27T05:07:41.403Z,36.60
2019-03-27T05:10:13.674Z,35.20
2019-03-27T05:12:45.863Z,37.90
2019-03-27T05:15:18.308Z,40.92
2019-03-27T05:17:50.579Z,43.30
2019-03-27T05:20:22.877Z,44.60
2019-03-27T05:22:55.050Z,39.50
2019-03-27T05:25:27.512Z,40.60
2019-03-27T05:27:59.895Z,40.38
2019-03-27T05:30:34.984Z,41.63
2019-03-27T05:33:07.185Z,37.25
2019-03-27T05:35:39.572Z,41.20
2019-03-27T05:38:11.611Z,35.60
2019-03-27T05:40:43.893Z,35.60
2019-03-27T05:43:16.228Z,37.03
2019-03-27T05:45:48.563Z,34.03
2019-03-27T05:48:20.956Z,33.25
2019-03-27T05:50:53.477Z,41.53
2019-03-27T05:53:25.482Z,38.38
2019-03-27T05:55:57.773Z,42.75
2019-03-27T05:58:29.991Z,41.95
2019-03-27T06:01:02.176Z,38.07
2019-03-27T06:03:34.401Z,36.20
2019-03-27T06:06:08.588Z,34.48
2019-03-27T06:08:41.007Z,34.83
2019-03-27T06:11:13.280Z,31.73
2019-03-27T06:13:45.435Z,37.10
2019-03-27T06:16:17.968Z,39.20
2019-03-27T06:18:50.736Z,53.85
2019-03-27T06:21:23.214Z,38.37
2019-03-27T06:23:55.455Z,36.70
2019-03-27T06:26:27.795Z,36.20
2019-03-27T06:28:59.983Z,37.30
2019-03-27T06:31:34.543Z,45.15
2019-03-27T06:34:06.782Z,37.75
2019-03-27T06:36:39.066Z,47.10
2019-03-27T06:39:11.081Z,39.98
2019-03-27T06:41:43.478Z,40.70
2019-03-27T06:44:15.649Z,37.10
2019-03-27T06:46:48.142Z,38.65
2019-03-27T06:49:20.579Z,39.23
2019-03-27T06:51:52.851Z,41.45
2019-03-27T06:54:25.850Z,52.10
2019-03-27T06:57:01.115Z,53.33
2019-03-27T06:59:32.538Z,37.70
2019-03-27T07:02:04.625Z,36.60
2019-03-27T07:04:37.070Z,34.27
2019-03-27T07:07:09.397Z,40.85
2019-03-27T07:09:42.700Z,35.63
2019-03-27T07:12:21.053Z,75.03
2019-03-27T07:14:49.695Z,34.83
2019-03-27T07:17:22.203Z,38.17
2019-03-27T07:19:54.231Z,32.65
2019-03-27T07:22:26.429Z,32.80
2019-03-27T07:24:59.075Z,39.90
2019-03-27T07:27:31.652Z,31.33
2019-03-27T07:30:04.075Z,32.53
2019-03-27T07:32:39.051Z,48.30
2019-03-27T07:35:12.581Z,33.45
2019-03-27T07:37:44.850Z,35.03
2019-03-27T07:40:17.185Z,31.10
2019-03-27T07:42:49.570Z,37.03
2019-03-27T07:45:21.749Z,39.73
2019-03-27T07:47:54.310Z,30.57
2019-03-27T07:50:27.724Z,31.40
2019-03-27T07:53:00.217Z,56.68
2019-03-27T07:55:32.389Z,34.25
2019-03-27T07:58:04.568Z,39.73
2019-03-27T08:00:36.671Z,36.55
2019-03-27T08:03:09.032Z,36.53
2019-03-27T08:05:41.260Z,31.75
2019-03-27T08:08:13.299Z,34.45
2019-03-27T08:10:45.323Z,34.90
2019-03-27T08:13:18.425Z,31.42
2019-03-27T08:15:50.675Z,33.15
2019-03-27T08:18:24.535Z,32.90
2019-03-27T08:20:56.571Z,32.53
2019-03-27T08:23:28.937Z,30.40
2019-03-27T08:26:01.159Z,34.35
2019-03-27T08:28:34.329Z,30.92
2019-03-27T08:31:06.570Z,32.75
2019-03-27T08:33:41.498Z,32.78
2019-03-27T08:36:13.841Z,36.55
2019-03-27T08:38:46.212Z,37.63
2019-03-27T08:41:18.452Z,32.50
2019-03-27T08:43:50.738Z,39.88
2019-03-27T08:46:22.858Z,41.68
2019-03-27T08:48:55.201Z,37.03
2019-03-27T08:51:28.518Z,34.30
2019-03-27T08:54:01.140Z,47.45
2019-03-27T08:56:33.397Z,38.60
2019-03-27T08:59:05.474Z,30.72
2019-03-27T09:01:37.618Z,28.83
2019-03-27T09:04:10.073Z,36.03
2019-03-27T09:06:42.424Z,30.45
2019-03-27T09:09:14.690Z,42.57
2019-03-27T09:11:47.116Z,32.75
2019-03-27T09:14:19.397Z,37.80
2019-03-27T09:16:51.656Z,37.03
2019-03-27T09:19:35.085Z,37.85
2019-03-27T09:21:57.432Z,35.30
2019-03-27T09:24:29.812Z,45.12
2019-03-27T09:27:02.093Z,40.08
2019-03-27T09:29:34.177Z,31.17
2019-03-27T09:32:06.322Z,33.63
2019-03-27T09:34:40.548Z,32.60
2019-03-27T09:37:12.975Z,33.77
2019-03-27T09:39:45.107Z,32.35
2019-03-27T09:42:18.074Z,33.33
2019-03-27T09:44:50.453Z,33.53
2019-03-27T09:47:22.905Z,34.20
2019-03-27T09:49:55.237Z,35.00
2019-03-27T09:52:27.628Z,31.97
2019-03-27T09:54:59.975Z,42.65
2019-03-27T09:57:32.353Z,42.33
2019-03-27T10:00:05.172Z,36.00
2019-03-27T10:02:37.296Z,32.07
2019-03-27T10:05:10.849Z,35.73
2019-03-27T10:07:43.091Z,34.75
2019-03-27T10:10:15.486Z,33.10
2019-03-27T10:12:47.626Z,32.55
2019-03-27T10:15:19.695Z,35.63
2019-03-27T10:17:51.813Z,37.78
2019-03-27T10:20:24.253Z,45.63
2019-03-27T10:22:56.483Z,35.87
2019-03-27T10:25:28.791Z,31.33
2019-03-27T10:28:01.179Z,32.40
2019-03-27T10:30:33.493Z,52.27
2019-03-27T10:33:05.647Z,41.02
2019-03-27T10:35:39.668Z,43.00
2019-03-27T10:38:12.893Z,37.75
2019-03-27T10:40:45.055Z,34.67
2019-03-27T10:43:17.351Z,37.03
2019-03-27T10:45:49.418Z,39.55
2019-03-27T10:48:22.462Z,34.98
2019-03-27T10:50:54.696Z,45.48
2019-03-27T10:53:27.025Z,34.70
2019-03-27T10:55:59.373Z,48.52
2019-03-27T10:58:31.582Z,43.95
2019-03-27T11:01:06.972Z,34.88
2019-03-27T11:03:37.390Z,37.38
2019-03-27T11:06:10.974Z,36.50
2019-03-27T11:08:43.308Z,208.25
2019-03-27T11:11:15.701Z,108.55
2019-03-27T11:25:42.581Z,88.10
2019-03-27T11:28:14.832Z,76.55
2019-03-27T11:30:48.470Z,64.32
2019-03-27T11:33:20.804Z,73.17
2019-03-27T11:35:54.649Z,70.90
2019-03-27T11:38:26.995Z,71.27
2019-03-27T11:40:59.277Z,49.00
2019-03-27T11:43:31.421Z,44.70
2019-03-27T11:46:03.785Z,41.00
2019-03-27T11:48:36.179Z,42.65
2019-03-27T11:51:08.399Z,46.20
2019-03-27T11:53:40.777Z,45.95
2019-03-27T11:56:13.869Z,39.27
2019-03-27T11:58:46.398Z,38.63
2019-03-27T12:01:18.643Z,38.70
2019-03-27T12:03:50.852Z,44.18
2019-03-27T12:06:23.123Z,43.38
2019-03-27T12:08:55.137Z,32.58
2019-03-27T12:11:27.327Z,30.97
2019-03-27T12:13:59.509Z,28.95
2019-03-27T12:16:31.693Z,34.10
2019-03-27T12:19:03.923Z,28.30
2019-03-27T12:21:36.172Z,25.62
2019-03-27T12:24:08.238Z,28.70
2019-03-27T12:26:40.578Z,26.75
2019-03-27T12:29:12.912Z,27.00
2019-03-27T12:31:45.028Z,28.27
2019-03-27T12:34:17.483Z,29.20
2019-03-27T12:36:51.679Z,29.10
2019-03-27T12:39:23.678Z,37.30
2019-03-27T12:41:56.051Z,29.87
2019-03-27T12:44:28.046Z,42.85
2019-03-27T12:47:00.219Z,35.33
2019-03-27T12:49:32.627Z,27.33
2019-03-27T12:52:05.737Z,27.65
2019-03-27T12:54:38.083Z,28.25
2019-03-27T12:57:10.467Z,31.23
2019-03-27T12:59:42.936Z,33.23
2019-03-27T13:02:15.378Z,30.70
2019-03-27T13:04:47.622Z,33.42
2019-03-27T13:07:21.080Z,31.15
2019-03-27T13:09:53.426Z,37.13
2019-03-27T13:12:25.854Z,41.33
2019-03-27T13:14:58.064Z,34.27
2019-03-27T13:17:30.214Z,33.67
2019-03-27T13:20:02.526Z,35.73
2019-03-27T13:22:38.012Z,32.93
2019-03-27T13:25:09.709Z,31.57
2019-03-27T13:27:42.381Z,29.72
2019-03-27T13:30:14.734Z,30.02
2019-03-27T13:32:46.993Z,27.40
2019-03-27T13:35:19.307Z,24.90
2019-03-27T13:37:51.867Z,26.02
2019-03-27T13:40:24.352Z,23.22
2019-03-27T13:42:56.672Z,22.27
2019-03-27T13:45:28.773Z,33.05
2019-03-27T13:48:01.228Z,31.37
2019-03-27T13:50:33.630Z,47.60
2019-03-27T13:53:05.907Z,44.13
2019-03-27T13:55:38.831Z,49.30
2019-03-27T13:58:11.334Z,44.03
2019-03-27T14:00:43.732Z,45.28
2019-03-27T14:03:15.958Z,44.90
2019-03-27T14:05:48.094Z,56.50
2019-03-27T14:08:20.366Z,47.78
2019-03-27T14:10:55.588Z,41.02
2019-03-27T14:13:28.123Z,35.80
2019-03-27T14:16:00.699Z,40.25
2019-03-27T14:18:33.223Z,35.98
2019-03-27T14:21:05.471Z,37.33
2019-03-27T14:23:37.835Z,36.13
2019-03-27T14:26:09.977Z,31.93
2019-03-27T14:28:42.160Z,32.55
2019-03-27T14:31:14.399Z,36.25
2019-03-27T14:33:46.576Z,35.20
2019-03-27T14:36:18.822Z,37.13
2019-03-27T14:38:51.561Z,33.35
2019-03-27T14:41:23.868Z,33.10
2019-03-27T14:43:55.897Z,36.33
2019-03-27T14:46:27.987Z,35.78
2019-03-27T14:49:00.260Z,35.30
2019-03-27T14:51:32.948Z,36.48
2019-03-27T14:54:05.408Z,36.15
2019-03-27T14:56:37.611Z,35.85
2019-03-27T14:59:10.876Z,32.77
2019-03-27T15:01:44.267Z,32.67
2019-03-27T15:04:16.407Z,34.95
2019-03-27T15:06:48.565Z,35.60
2019-03-27T15:09:20.874Z,36.75
2019-03-27T15:11:52.996Z,40.40
2019-03-27T15:14:25.133Z,34.38
2019-03-27T15:16:57.571Z,31.95
2019-03-27T15:19:29.844Z,32.03
2019-03-27T15:22:02.302Z,31.77
2019-03-27T15:24:34.482Z,43.13
2019-03-27T15:27:07.765Z,31.90
2019-03-27T15:29:41.047Z,29.77
2019-03-27T15:32:13.353Z,31.15
2019-03-27T15:34:45.613Z,31.48
2019-03-27T15:37:17.843Z,30.70
2019-03-27T15:39:50.361Z,32.53
2019-03-27T15:42:22.643Z,32.93
2019-03-27T15:44:54.996Z,29.85
2019-03-27T15:47:27.715Z,34.75
2019-03-27T15:50:00.101Z,35.68
2019-03-27T15:52:36.634Z,32.90
2019-03-27T15:55:06.030Z,32.08
2019-03-27T15:57:38.282Z,31.10
2019-03-27T16:00:10.931Z,32.98
2019-03-27T16:02:43.530Z,35.70
2019-03-27T16:05:15.696Z,39.05
2019-03-27T16:07:47.897Z,35.75
2019-03-27T16:10:20.158Z,37.05
2019-03-27T16:12:52.459Z,36.38
2019-03-27T16:15:24.667Z,36.23
2019-03-27T16:17:56.830Z,37.17
2019-03-27T16:20:29.018Z,38.42
2019-03-27T16:23:01.285Z,38.53
2019-03-27T16:25:33.540Z,37.03
2019-03-27T16:28:05.980Z,39.75
2019-03-27T16:30:38.430Z,38.67
2019-03-27T16:33:10.732Z,37.63
2019-03-27T16:35:42.993Z,38.87
2019-03-27T16:38:15.562Z,39.90
2019-03-27T16:40:48.913Z,40.03
2019-03-27T16:43:21.479Z,40.10
2019-03-27T16:45:53.849Z,39.45
2019-03-27T16:48:26.365Z,39.15
2019-03-27T16:50:58.597Z,39.00
2019-03-27T16:53:31.813Z,41.37
2019-03-27T16:56:03.942Z,40.53
2019-03-27T16:58:36.506Z,44.03
2019-03-27T17:01:08.744Z,42.33
2019-03-27T17:03:41.124Z,46.08
2019-03-27T17:06:13.471Z,47.23
2019-03-27T17:08:45.625Z,44.42
2019-03-27T17:11:17.883Z,44.65
2019-03-27T17:13:49.931Z,37.85
2019-03-27T17:16:21.973Z,36.15
2019-03-27T17:18:54.340Z,37.58
2019-03-27T17:21:26.698Z,36.38
2019-03-27T17:23:58.981Z,37.63
2019-03-27T17:26:31.110Z,40.25
2019-03-27T17:29:03.520Z,38.83
2019-03-27T17:31:35.947Z,37.63
2019-03-27T17:34:08.319Z,39.58
2019-03-27T17:36:41.029Z,43.43
2019-03-27T17:39:13.298Z,46.28
2019-03-27T17:41:47.086Z,40.83
2019-03-27T17:44:19.490Z,40.08
2019-03-27T17:46:51.621Z,39.60
2019-03-27T17:49:24.085Z,42.10
2019-03-27T17:51:56.355Z,42.40
2019-03-27T17:54:28.798Z,45.25
2019-03-27T17:57:01.159Z,42.73
2019-03-27T17:59:34.417Z,44.60
2019-03-27T18:02:06.558Z,42.37
2019-03-27T18:04:39.094Z,43.17
2019-03-27T18:07:11.217Z,48.28
2019-03-27T18:09:43.629Z,44.58
2019-03-27T18:12:15.991Z,45.65
2019-03-27T18:14:49.374Z,50.12
2019-03-27T18:17:21.896Z,45.70
2019-03-27T18:19:54.052Z,46.00
2019-03-27T18:22:27.220Z,44.93
2019-03-27T18:24:59.601Z,47.20
2019-03-27T18:27:32.107Z,44.83
2019-03-27T18:30:04.249Z,45.00
2019-03-27T18:32:37.097Z,47.43
2019-03-27T18:35:09.429Z,45.43
2019-03-27T18:37:41.602Z,42.88
2019-03-27T18:40:14.068Z,45.92
2019-03-27T18:42:46.559Z,50.45
2019-03-27T18:45:18.825Z,52.70
2019-03-27T18:47:51.058Z,46.80
2019-03-27T18:50:23.335Z,52.57
2019-03-27T18:52:55.575Z,43.38
2019-03-27T18:55:27.931Z,41.58
2019-03-27T18:58:00.842Z,44.60
2019-03-27T19:00:33.584Z,43.23
2019-03-27T19:03:06.118Z,44.50
2019-03-27T19:05:38.519Z,48.02
2019-03-27T19:08:10.753Z,48.35
2019-03-27T19:10:43.024Z,43.08
2019-03-27T19:13:15.322Z,44.85
2019-03-27T19:15:47.581Z,45.83
2019-03-27T19:18:19.853Z,48.57
2019-03-27T19:20:52.099Z,42.93
2019-03-27T19:23:24.448Z,51.90
2019-03-27T19:25:56.774Z,49.50
2019-03-27T19:28:28.983Z,48.20
2019-03-27T19:31:01.258Z,51.98
2019-03-27T19:33:33.499Z,43.28
2019-03-27T19:36:06.184Z,44.77
2019-03-27T19:38:38.478Z,42.27
2019-03-27T19:41:10.810Z,44.40
2019-03-27T19:43:43.208Z,47.90
2019-03-27T19:46:15.680Z,48.65
2019-03-27T19:48:48.010Z,47.85
2019-03-27T19:51:20.071Z,48.37
2019-03-27T19:53:52.098Z,45.92
2019-03-27T19:56:24.407Z,46.18
2019-03-27T19:58:56.542Z,50.10
2019-03-27T20:01:28.815Z,54.55
2019-03-27T20:04:01.072Z,57.33
2019-03-27T20:06:33.488Z,53.08
2019-03-27T20:09:07.125Z,57.73
2019-03-27T20:11:39.615Z,60.50
2019-03-27T20:14:12.173Z,56.13
2019-03-27T20:16:44.373Z,51.15
2019-03-27T20:19:16.637Z,49.33
2019-03-27T20:21:48.818Z,52.40
2019-03-27T20:24:22.141Z,58.38
2019-03-27T20:26:54.215Z,55.88
2019-03-27T20:29:26.379Z,59.98
2019-03-27T20:31:58.456Z,52.48
2019-03-27T20:34:30.894Z,57.00
2019-03-27T20:37:03.210Z,53.08
2019-03-27T20:39:35.644Z,52.75
2019-03-27T20:42:08.006Z,60.88
2019-03-27T20:44:40.337Z,52.13
2019-03-27T20:47:12.592Z,54.20
2019-03-27T20:49:44.948Z,61.30
2019-03-27T20:52:17.382Z,61.37
2019-03-27T20:54:55.010Z,61.63
2019-03-27T20:57:23.090Z,58.83
2019-03-27T20:59:55.412Z,60.80
2019-03-27T21:02:27.548Z,61.85
2019-03-27T21:04:59.683Z,59.60
2019-03-27T21:07:32.191Z,59.53
2019-03-27T21:10:04.312Z,65.80
2019-03-27T21:12:36.682Z,66.00
2019-03-27T21:15:09.481Z,67.57
2019-03-27T21:17:41.618Z,68.28
2019-03-27T21:20:14.045Z,65.00
2019-03-27T21:22:46.421Z,86.67
2019-03-27T21:25:18.750Z,82.97
2019-03-27T21:27:50.813Z,73.17
2019-03-27T21:30:23.331Z,74.25
2019-03-27T21:32:55.860Z,63.90
2019-03-27T21:35:27.901Z,65.72
2019-03-27T21:38:00.199Z,68.70
2019-03-27T21:40:32.436Z,88.87
2019-03-27T21:43:04.603Z,90.95
2019-03-27T21:45:36.937Z,70.92
2019-03-27T21:48:09.197Z,72.95
2019-03-27T21:50:41.605Z,63.15
2019-03-27T21:53:14.084Z,65.12
2019-03-27T21:55:46.336Z,66.33
2019-03-27T21:58:18.766Z,64.32
2019-03-27T22:00:50.885Z,64.77
2019-03-27T22:03:23.141Z,68.92
2019-03-27T22:05:55.515Z,75.67
2019-03-27T22:08:28.135Z,78.22
2019-03-27T22:11:00.286Z,84.05
2019-03-27T22:13:32.644Z,70.73
2019-03-27T22:16:04.858Z,65.47
2019-03-27T22:18:36.911Z,75.32
2019-03-27T22:21:09.089Z,77.80
2019-03-27T22:23:41.218Z,80.73
2019-03-27T22:26:13.375Z,78.50
2019-03-27T22:28:45.555Z,70.52
2019-03-27T22:31:17.887Z,83.72
2019-03-27T22:33:51.165Z,74.53
2019-03-27T22:36:23.367Z,78.63
2019-03-27T22:38:55.690Z,68.37
2019-03-27T22:41:27.865Z,65.35
2019-03-27T22:44:00.356Z,69.12
2019-03-27T22:46:33.055Z,66.37
2019-03-27T22:49:05.647Z,64.42
2019-03-27T22:51:38.123Z,62.38
2019-03-27T22:54:10.489Z,68.23
2019-03-27T22:56:42.707Z,62.80
2019-03-27T22:59:14.867Z,64.12
2019-03-27T23:01:47.769Z,61.68
2019-03-27T23:04:19.972Z,61.23
2019-03-27T23:06:52.094Z,64.20
2019-03-27T23:09:24.501Z,65.75
2019-03-27T23:11:56.729Z,64.65
2019-03-27T23:14:28.926Z,63.73
2019-03-27T23:17:01.275Z,62.40
2019-03-27T23:19:33.333Z,61.13
2019-03-27T23:22:05.463Z,62.27
2019-03-27T23:24:37.769Z,60.25
2019-03-27T23:27:09.982Z,63.52
2019-03-27T23:29:42.239Z,59.85
2019-03-27T23:32:14.493Z,56.83
2019-03-27T23:34:46.772Z,59.70
2019-03-27T23:37:19.225Z,59.35
2019-03-27T23:39:51.503Z,57.27
2019-03-27T23:42:23.842Z,55.38
2019-03-27T23:44:55.982Z,54.85
2019-03-27T23:47:29.532Z,57.65
2019-03-27T23:50:01.721Z,57.83
2019-03-27T23:52:34.188Z,56.48
2019-03-27T23:55:07.463Z,55.33
2019-03-27T23:57:39.598Z,52.62
